D/T METAR WX W/DIR W/SPE G/SPE TEMP DEWP
19/03/19 02:50 EGOM 190250Z AUTO 26005KT 0050 -DZ VV/// 05/05 Q1021 -DZ W (260°) 5.8mph 5°C 5°C
19/03/19 01:50 EGOM 190150Z AUTO 28004KT 1800 BKN001/// BKN012/// 05/05 Q1021 W (280°) 4.6mph 5°C 5°C
19/03/19 00:50 EGOM 190050Z AUTO 25007KT 0500 FG VV/// 05/05 Q1021 FG WSW (250°) 8.1mph 5°C 5°C
18/03/19 23:50 EGOM 182350Z AUTO 24003KT 0200 FG VV/// 05/05 Q1020 FG WSW (240°) 3.5mph 5°C 5°C
18/03/19 22:50 EGOM 182250Z AUTO 18003KT 0200 FG VV/// 05/05 Q1020 FG S (180°) 3.5mph 5°C 5°C
18/03/19 21:50 EGOM 182150Z AUTO 26002KT 2200 BR BKN001/// 05/05 Q1020 REDZ BR W (260°) 2.3mph 5°C 5°C
18/03/19 20:50 EGOM 182050Z AUTO 29003KT 9999 SCT004/// BKN011/// 05/04 Q1020 WNW (290°) 3.5mph 5°C 4°C
18/03/19 19:50 EGOM 181950Z AUTO 29002KT 9999 FEW007/// BKN014/// 05/04 Q1019 WNW (290°) 2.3mph 5°C 4°C
18/03/19 18:50 EGOM 181850Z AUTO 31003KT 9999 BKN017/// BKN049/// 05/04 Q1019 NW (310°) 3.5mph 5°C 4°C
18/03/19 17:50 EGOM 181750Z AUTO 27008KT 9999 BKN016/// SCT050/// 06/04 Q1018 W (270°) 9.2mph 6°C 4°C
18/03/19 16:50 EGOM 181650Z AUTO 26008KT 9999 FEW009/// BKN060/// 06/04 Q1017 W (260°) 9.2mph 6°C 4°C
18/03/19 15:50 EGOM 181550Z 26011KT 9999 SCT012 BKN022 BKN080 06/04 Q1017 GRN W (260°) 12.7mph 6°C 4°C
18/03/19 14:50 EGOM 181450Z 25010KT 9999 FEW012 BKN020 06/05 Q1017 WHT WSW (250°) 11.5mph 6°C 5°C
18/03/19 13:50 EGOM 181350Z 25010KT 9999 -RA SCT012 BKN022 06/04 Q1016 GRN -RA WSW (250°) 11.5mph 6°C 4°C
18/03/19 12:50 EGOM 181250Z 25010KT 9999 BKN011 SCT022 05/03 Q1017 GRN WSW (250°) 11.5mph 5°C 3°C
18/03/19 11:50 EGOM 181150Z 25011KT 9999 SCT011 SCT022 BKN100 06/03 Q1016 GRN WSW (250°) 12.7mph 6°C 3°C
18/03/19 10:50 EGOM 181050Z 26009KT 9999 SCT008 05/03 Q1016 GRN W (260°) 10.4mph 5°C 3°C
18/03/19 09:50 EGOM 180950Z 27011KT 9999 BKN008 BKN060 05/03 Q1015 GRN W (270°) 12.7mph 5°C 3°C
18/03/19 08:50 EGOM 180850Z 27009KT 9999 FEW001 SCT080 03/03 Q1015 BLU W (270°) 10.4mph 3°C 3°C
18/03/19 07:50 EGOM 180750Z AUTO 27007KT 9999 SCT003/// BKN050/// 02/02 Q1015 W (270°) 8.1mph 2°C 2°C
18/03/19 06:50 EGOM 180650Z AUTO 25008KT 9999 FEW017/// BKN050/// 01/00 Q1014 WSW (250°) 9.2mph 1°C 0°C
18/03/19 05:50 EGOM 180550Z AUTO 27007KT 9999 BKN050/// BKN140/// 00/M00 Q1014 W (270°) 8.1mph 0°C 0°C
18/03/19 04:50 EGOM 180450Z AUTO 27009KT 9999 FEW060/// SCT140/// M01/M01 Q1013 W (270°) 10.4mph -1°C -1°C
18/03/19 03:50 EGOM 180350Z AUTO 26008KT 9999 FEW140/// M02/M02 Q1013 W (260°) 9.2mph -2°C -2°C
18/03/19 02:50 EGOM 180250Z AUTO 25009KT 9999 SCT150/// M01/M02 Q1013 WSW (250°) 10.4mph -1°C -2°C
18/03/19 01:50 EGOM 180150Z AUTO 29010KT 9999 FEW180/// M01/M02 Q1012 WNW (290°) 11.5mph -1°C -2°C
18/03/19 00:50 EGOM 180050Z AUTO 28009KT 9999 NCD M01/M02 Q1012 W (280°) 10.4mph -1°C -2°C
17/03/19 23:50 EGOM 172350Z AUTO 27008KT 9999 NCD M01/M02 Q1011 W (270°) 9.2mph -1°C -2°C
17/03/19 22:50 EGOM 172250Z AUTO 25007KT 9999 FEW220/// M01/M02 Q1010 WSW (250°) 8.1mph -1°C -2°C
17/03/19 21:50 EGOM 172150Z AUTO 26008KT 9999 BKN045/// 01/M01 Q1010 W (260°) 9.2mph 1°C -1°C
17/03/19 20:50 EGOM 172050Z AUTO 28009KT 9999 NCD 01/M01 Q1009 W (280°) 10.4mph 1°C -1°C
17/03/19 19:50 EGOM 171950Z AUTO 29010KT 9999 NCD 02/00 Q1008 WNW (290°) 11.5mph 2°C 0°C
17/03/19 18:50 EGOM 171850Z AUTO 32006KT 9999 FEW045/// 02/M00 Q1006 NW (320°) 6.9mph 2°C 0°C
17/03/19 17:50 EGOM 171750Z AUTO 32010KT 9999 SCT050/// 04/01 Q1005 RERA NW (320°) 11.5mph 4°C 1°C
17/03/19 16:50 EGOM 171650Z AUTO 31006KT 9999 FEW033/// BKN050/// 05/02 Q1003 NW (310°) 6.9mph 5°C 2°C
17/03/19 15:50 EGOM 171550Z AUTO 27009KT 9999 FEW037/// BKN043/// 06/05 Q1002 RERA W (270°) 10.4mph 6°C 5°C
17/03/19 14:50 EGOM 171450Z AUTO 27014KT 9999 -RA SCT009/// BKN016/// 05/03 Q1000 -RA W (270°) 16.1mph 5°C 3°C
17/03/19 13:50 EGOM 171350Z AUTO 27019KT 9999 -DZ SCT007/// BKN022/// 05/04 Q0999 -DZ W (270°) 21.9mph 5°C 4°C
17/03/19 12:50 EGOM 171250Z AUTO 26020G30KT 8000 -RA SCT021/// BKN028/// 04/02 Q0998 -RA W (260°) 23.0mph 34.5mph 4°C 2°C
17/03/19 11:50 EGOM 171150Z AUTO 25019KT 9999 SCT012/// BKN020/// 03/01 Q0998 WSW (250°) 21.9mph 3°C 1°C
17/03/19 10:50 EGOM 171050Z AUTO 25020G30KT 9999 FEW011/// BKN019/// 03/01 Q0997 WSW (250°) 23.0mph 34.5mph 3°C 1°C
17/03/19 09:50 EGOM 170950Z AUTO 26020KT 9999 SCT006/// BKN014/// 03/01 Q0996 W (260°) 23.0mph 3°C 1°C
17/03/19 08:50 EGOM 170850Z AUTO 25018KT 9999 BKN005/// 02/01 Q0995 WSW (250°) 20.7mph 2°C 1°C
17/03/19 07:50 EGOM 170750Z AUTO 26023KT 9999 OVC003/// 01/00 Q0994 W (260°) 26.5mph 1°C 0°C
17/03/19 06:50 EGOM 170650Z AUTO 26017KT 9999 BKN004/// BKN017/// 00/00 Q0993 W (260°) 19.6mph 0°C 0°C
17/03/19 05:50 EGOM 170550Z AUTO 26018KT 9999 BKN013/// 01/00 Q0993 W (260°) 20.7mph 1°C 0°C
17/03/19 04:50 EGOM 170450Z AUTO 26021KT 9999 SCT004/// BKN017/// 01/00 Q0992 W (260°) 24.2mph 1°C 0°C
17/03/19 03:50 EGOM 170350Z AUTO 25014KT 9999 BKN003/// BKN011/// 01/01 Q0991 WSW (250°) 16.1mph 1°C 1°C
17/03/19 02:50 EGOM 170250Z AUTO 26016KT 9999 FEW004/// BKN019/// 01/01 Q0991 W (260°) 18.4mph 1°C 1°C
17/03/19 01:50 EGOM 170150Z AUTO 26020KT 9999 BKN020/// 01/00 Q0990 W (260°) 23.0mph 1°C 0°C
17/03/19 00:50 EGOM 170050Z AUTO 26019KT 9999 OVC019/// 01/01 Q0990 W (260°) 21.9mph 1°C 1°C
16/03/19 23:50 EGOM 162350Z AUTO 26016KT 9999 BKN014/// 01/01 Q0989 W (260°) 18.4mph 1°C 1°C
16/03/19 22:50 EGOM 162250Z AUTO 25013KT 9999 FEW010/// BKN014/// 01/00 Q0989 WSW (250°) 15.0mph 1°C 0°C
16/03/19 21:50 EGOM 162150Z AUTO 25013KT 9999 BKN012/// BKN020/// 01/01 Q0988 WSW (250°) 15.0mph 1°C 1°C
16/03/19 20:50 EGOM 162050Z AUTO 26010KT 9999 BKN011/// 01/00 Q0987 W (260°) 11.5mph 1°C 0°C
16/03/19 19:50 EGOM 161950Z AUTO 27016KT 9999 BKN012/// BKN020/// 02/00 Q0986 REUP W (270°) 18.4mph 2°C 0°C
16/03/19 18:50 EGOM 161850Z AUTO 28023G33KT 9999 OVC011/// 02/00 Q0984 REUP W (280°) 26.5mph 38.0mph 2°C 0°C
16/03/19 17:50 EGOM 161750Z AUTO 27023G33KT 9999 UP FEW008/// BKN013/// BKN021/// 03/02 Q0982 UP W (270°) 26.5mph 38.0mph 3°C 2°C
16/03/19 16:50 EGOM 161650Z AUTO 24025G35KT 9999 FEW003/// BKN006/// 05/04 Q0981 RERA WSW (240°) 28.8mph 40.3mph 5°C 4°C
16/03/19 15:50 EGOM 161550Z AUTO 23030G46KT 2600 DZ BKN004/// BKN013/// 08/07 Q0980 DZ SW (230°) 34.5mph 52.9mph 8°C 7°C
16/03/19 14:50 EGOM 161450Z AUTO 24029G41KT 4000 RA BKN003/// BKN009/// 08/08 Q0981 RA WSW (240°) 33.4mph 47.2mph 8°C 8°C
16/03/19 13:50 EGOM 161350Z AUTO 23027G37KT 9999 -RADZ OVC009/// 09/08 Q0982 -RA -DZ SW (230°) 31.1mph 42.6mph 9°C 8°C
16/03/19 12:50 EGOM 161250Z AUTO 23023G35KT 9999 -RA OVC007/// 09/08 Q0983 -RA SW (230°) 26.5mph 40.3mph 9°C 8°C
16/03/19 11:50 EGOM 161150Z AUTO 23024KT 6000 RA OVC005/// 08/08 Q0984 RA SW (230°) 27.6mph 8°C 8°C
16/03/19 10:50 EGOM 161050Z AUTO 23013G25KT 4400 RA OVC002/// 06/06 Q0985 RA SW (230°) 15.0mph 28.8mph 6°C 6°C
16/03/19 09:50 EGOM 160950Z AUTO 06007KT 2700 RA OVC004/// 00/00 Q0987 RA ENE (60°) 8.1mph 0°C 0°C
16/03/19 08:50 EGOM 160850Z AUTO 05007KT 2400 -RASN OVC003/// 00/M00 Q0988 -RA -SN NE (50°) 8.1mph 0°C 0°C
16/03/19 07:50 EGOM 160750Z AUTO 07009KT 2500 -RASN BKN003/// 00/00 Q0990 -RA -SN ENE (70°) 10.4mph 0°C 0°C
16/03/19 06:50 EGOM 160650Z AUTO 09010KT 5000 RA FEW008/// BKN012/// 00/00 Q0991 RA E (90°) 11.5mph 0°C 0°C
16/03/19 05:50 EGOM 160550Z AUTO 09008KT 1100 SN OVC003/// 00/00 Q0994 SN E (90°) 9.2mph 0°C 0°C
16/03/19 04:50 EGOM 160450Z AUTO 11006KT 1000 SN OVC002/// 00/00 Q0995 SN ESE (110°) 6.9mph 0°C 0°C
16/03/19 03:50 EGOM 160350Z AUTO 19004KT 4100 RA BKN004/// SCT022/// 01/01 Q0997 RA S (190°) 4.6mph 1°C 1°C
16/03/19 02:50 EGOM 160250Z AUTO 21007KT 9000 RA SCT007/// SCT013/// BKN044/// 02/02 Q0998 RA SSW (210°) 8.1mph 2°C 2°C
16/03/19 01:50 EGOM 160150Z AUTO 24008KT 9999 SCT060/// OVC100/// 03/01 Q0999 WSW (240°) 9.2mph 3°C 1°C
16/03/19 00:50 EGOM 160050Z AUTO 26009KT 9999 OVC070/// 03/01 Q1000 W (260°) 10.4mph 3°C 1°C
15/03/19 23:50 EGOM 152350Z AUTO 26012KT 9999 SCT110/// BKN150/// 02/02 Q1001 W (260°) 13.8mph 2°C 2°C
15/03/19 22:50 EGOM 152250Z AUTO 27017KT 9999 BKN140/// 02/01 Q1001 W (270°) 19.6mph 2°C 1°C
15/03/19 21:50 EGOM 152150Z AUTO 27016KT 9999 FEW033/// SCT039/// 03/01 Q1002 W (270°) 18.4mph 3°C 1°C
15/03/19 20:50 EGOM 152050Z AUTO 26015KT 9999 FEW031/// 02/01 Q1002 W (260°) 17.3mph 2°C 1°C
15/03/19 19:50 EGOM 151950Z AUTO 27017KT 9999 SCT060/// 02/00 Q1002 W (270°) 19.6mph 2°C 0°C
15/03/19 18:50 EGOM 151850Z AUTO 27019KT 9999 SCT050/// 03/00 Q1002 W (270°) 21.9mph 3°C 0°C
15/03/19 17:50 EGOM 151750Z AUTO 27022KT 9999 FEW060/// 03/M00 Q1001 W (270°) 25.3mph 3°C 0°C
15/03/19 16:50 EGOM 151650Z AUTO 26023G34KT 9999 SCT034/// SCT043/// 05/00 Q1000 W (260°) 26.5mph 39.1mph 5°C 0°C
15/03/19 15:50 EGOM 151550Z AUTO 27026G36KT 9999 SCT060/// 05/02 Q1000 RESN W (270°) 29.9mph 41.4mph 5°C 2°C
15/03/19 14:50 EGOM 151450Z AUTO 26023G35KT 9999 FEW022/// 05/02 Q0999 RERA W (260°) 26.5mph 40.3mph 5°C 2°C
15/03/19 13:50 EGOM 151350Z AUTO 28025KT 8000 RA FEW009/// BKN019/// 02/01 Q0999 RA W (280°) 28.8mph 2°C 1°C
15/03/19 12:50 EGOM 151250Z AUTO 27023KT 9999 FEW040/// BKN070/// 07/03 Q0998 W (270°) 26.5mph 7°C 3°C
15/03/19 11:50 EGOM 151150Z AUTO 27028G43KT 9999 FEW026/// 05/01 Q0997 RERA W (270°) 32.2mph 49.5mph 5°C 1°C
15/03/19 10:50 EGOM 151050Z 27024G36KT 9999 BKN014 BKN027 06/03 Q0996 GRN W (270°) 27.6mph 41.4mph 6°C 3°C
15/03/19 09:50 EGOM 150950Z 27025G38KT 9999 -RA BKN015 04/03 Q0996 WHT -RA W (270°) 28.8mph 43.7mph 4°C 3°C
15/03/19 08:50 EGOM 150850Z 27024G38KT 9999 FEW010 05/03 Q0995 BLU W (270°) 27.6mph 43.7mph 5°C 3°C
15/03/19 07:50 EGOM 150750Z AUTO 26024G34KT 9999 BKN018/// SCT031/// 05/04 Q0994 RERA W (260°) 27.6mph 39.1mph 5°C 4°C
15/03/19 06:50 EGOM 150650Z AUTO 26018KT 9999 -RA BKN014/// 05/05 Q0993 -RA W (260°) 20.7mph 5°C 5°C
15/03/19 05:50 EGOM 150550Z AUTO 27023G37KT 5000 RA FEW002/// BKN013/// 06/06 Q0992 RA W (270°) 26.5mph 42.6mph 6°C 6°C
15/03/19 04:50 EGOM 150450Z AUTO 25028KT 2700 RA BKN002/// BKN010/// 08/08 Q0990 RA WSW (250°) 32.2mph 8°C 8°C
15/03/19 03:50 EGOM 150350Z AUTO 25026G37KT 3700 -RA OVC002/// 08/08 Q0991 -RA WSW (250°) 29.9mph 42.6mph 8°C 8°C
15/03/19 02:50 EGOM 150250Z AUTO 23011KT 0900 +DZ OVC002/// 05/05 Q0992 +DZ SW (230°) 12.7mph 5°C 5°C
15/03/19 01:50 EGOM 150150Z AUTO 24018KT 4100 BR BKN001/// 05/05 Q0993 RERA BR WSW (240°) 20.7mph 5°C 5°C
15/03/19 00:50 EGOM 150050Z AUTO 24019KT 9999 BKN005/// BKN013/// 04/04 Q0995 RERA WSW (240°) 21.9mph 4°C 4°C
14/03/19 23:50 EGOM 142350Z AUTO 24017KT 7000 -DZ BKN005/// BKN011/// 04/04 Q0996 -DZ WSW (240°) 19.6mph 4°C 4°C
14/03/19 22:50 EGOM 142250Z AUTO 25022KT 9999 -RADZ SCT010/// SCT017/// BKN028/// 05/04 Q0997 -RA -DZ WSW (250°) 25.3mph 5°C 4°C
14/03/19 21:50 EGOM 142150Z AUTO 26020KT 9999 FEW010/// BKN044/// 05/04 Q0998 W (260°) 23.0mph 5°C 4°C
14/03/19 20:50 EGOM 142050Z AUTO 25013KT 9999 BKN032/// 04/03 Q0999 WSW (250°) 15.0mph 4°C 3°C
14/03/19 19:50 EGOM 141950Z AUTO 26020KT 9999 FEW032/// BKN170/// 05/03 Q0999 W (260°) 23.0mph 5°C 3°C
14/03/19 18:50 EGOM 141850Z AUTO 27023KT 9999 FEW027/// 04/03 Q0999 RERA W (270°) 26.5mph 4°C 3°C
14/03/19 17:50 EGOM 141750Z AUTO 27021KT 9999 RA FEW019/// SCT026/// 04/03 Q0999 RA W (270°) 24.2mph 4°C 3°C
14/03/19 16:50 EGOM 141650Z AUTO 27019KT 9999 -RA SCT020/// BKN050/// 05/04 Q0999 -RA W (270°) 21.9mph 5°C 4°C
14/03/19 15:50 EGOM 141550Z AUTO 27021KT 9999 NCD 07/03 Q0998 RERA W (270°) 24.2mph 7°C 3°C
14/03/19 14:50 EGOM 141450Z 27026KT 9999 FEW030 SCT035 07/02 Q0997 BLU W (270°) 29.9mph 7°C 2°C
14/03/19 13:50 EGOM 141350Z 27024KT 9999 BKN036 07/03 Q0996 BLU W (270°) 27.6mph 7°C 3°C
14/03/19 12:50 EGOM 141250Z 27025G35KT 9999 -RA FEW023 SCT032 07/04 Q0996 BLU -RA W (270°) 28.8mph 40.3mph 7°C 4°C
14/03/19 11:50 EGOM 141150Z 28019KT 9999 SCT025 BKN031 07/03 Q0995 BLU W (280°) 21.9mph 7°C 3°C
14/03/19 10:50 EGOM 141050Z 27025G38KT 9999 SCT022 BKN032 07/04 Q0994 WHT W (270°) 28.8mph 43.7mph 7°C 4°C
14/03/19 09:50 EGOM 140950Z 28026KT 9999 SCT027 SCT031 06/03 Q0993 BLU W (280°) 29.9mph 6°C 3°C
14/03/19 08:50 EGOM 140850Z 27023KT 9999 SCT015 BKN025 06/05 Q0992 WHT W (270°) 26.5mph 6°C 5°C
14/03/19 07:50 EGOM 140750Z AUTO 26019KT 9999 BKN011/// 05/04 Q0991 RERA W (260°) 21.9mph 5°C 4°C
14/03/19 06:50 EGOM 140650Z AUTO 30020KT 9999 FEW002/// BKN070/// 05/04 Q0989 RERA WNW (300°) 23.0mph 5°C 4°C
14/03/19 05:50 EGOM 140550Z AUTO 26027G37KT 4300 RA OVC002/// 07/07 Q0988 RA W (260°) 31.1mph 42.6mph 7°C 7°C
14/03/19 04:50 EGOM 140450Z AUTO 24026G36KT 4900 RA OVC002/// 06/06 Q0988 RA WSW (240°) 29.9mph 41.4mph 6°C 6°C
14/03/19 03:50 EGOM 140350Z AUTO 24028G38KT 4900 RA BKN003/// BKN010/// 06/06 Q0990 RA WSW (240°) 32.2mph 43.7mph 6°C 6°C
14/03/19 02:50 EGOM 140250Z AUTO 25027G39KT 8000 -RA BKN003/// BKN010/// 06/06 Q0992 -RA WSW (250°) 31.1mph 44.9mph 6°C 6°C
14/03/19 01:50 EGOM 140150Z AUTO 25025G37KT 6000 -RA BKN003/// BKN010/// 06/05 Q0995 -RA WSW (250°) 28.8mph 42.6mph 6°C 5°C
14/03/19 00:50 EGOM 140050Z AUTO 24027G44KT 9000 -RA OVC003/// 05/05 Q0996 -RA WSW (240°) 31.1mph 50.6mph 5°C 5°C
13/03/19 23:50 EGOM 132350Z AUTO 25025G39KT 5000 RA BKN003/// BKN011/// 05/05 Q0998 RA WSW (250°) 28.8mph 44.9mph 5°C 5°C
13/03/19 22:50 EGOM 132250Z AUTO 24025KT 7000 -RA OVC002/// 05/04 Q0999 -RA WSW (240°) 28.8mph 5°C 4°C
13/03/19 21:50 EGOM 132150Z AUTO 24023KT 6000 -RA BKN002/// 04/04 Q1001 -RA WSW (240°) 26.5mph 4°C 4°C
13/03/19 20:50 EGOM 132050Z AUTO 25020KT 7000 -RA BKN003/// SCT013/// 04/04 Q1002 -RA WSW (250°) 23.0mph 4°C 4°C
13/03/19 19:50 EGOM 131950Z AUTO 26024KT 9999 SCT006/// BKN021/// 04/04 Q1003 RERA W (260°) 27.6mph 4°C 4°C
13/03/19 18:50 EGOM 131850Z AUTO 26020KT 9999 BKN100/// 05/02 Q1004 RERA W (260°) 23.0mph 5°C 2°C
13/03/19 17:50 EGOM 131750Z AUTO 27020KT 9999 FEW020/// BKN110/// 05/03 Q1004 RERA W (270°) 23.0mph 5°C 3°C
13/03/19 16:50 EGOM 131650Z AUTO 27024G34KT 9999 FEW024/// SCT032/// 06/02 Q1003 W (270°) 27.6mph 39.1mph 6°C 2°C
13/03/19 15:50 EGOM 131550Z AUTO 28023G35KT 9999 BKN032/// 07/02 Q1003 RERA W (280°) 26.5mph 40.3mph 7°C 2°C
13/03/19 14:50 EGOM 131450Z 28030KT 9999 BKN027 SCT220 07/03 Q1002 BLU W (280°) 34.5mph 7°C 3°C
13/03/19 13:50 EGOM 131350Z 29026G38KT 9999 BKN030 08/03 Q1001 BLU WNW (290°) 29.9mph 43.7mph 8°C 3°C
13/03/19 12:50 EGOM 131250Z 30021KT 9999 BKN033 09/04 Q1000 BLU WNW (300°) 24.2mph 9°C 4°C
13/03/19 11:50 EGOM 131150Z 30026KT 9999 SCT035 08/03 Q0999 BLU WNW (300°) 29.9mph 8°C 3°C
13/03/19 10:50 EGOM 131050Z 30028KT 9999 SCT024 07/03 Q0997 WHT WNW (300°) 32.2mph 7°C 3°C
13/03/19 09:50 EGOM 130950Z 29029G40KT 9999 SCT019 06/03 Q0996 WHT WNW (290°) 33.4mph 46.0mph 6°C 3°C
13/03/19 08:50 EGOM 130850Z 29024G34KT 9999 FEW023 SCT028 06/02 Q0994 BLU WNW (290°) 27.6mph 39.1mph 6°C 2°C
13/03/19 07:50 EGOM 130750Z AUTO 29024G35KT 9999 OVC023/// 05/02 Q0992 WNW (290°) 27.6mph 40.3mph 5°C 2°C
13/03/19 06:50 EGOM 130650Z AUTO 29027G38KT 9999 BKN026/// SCT035/// 05/01 Q0991 WNW (290°) 31.1mph 43.7mph 5°C 1°C
13/03/19 05:50 EGOM 130550Z AUTO 28017KT 9999 SCT012/// BKN021/// 04/03 Q0989 W (280°) 19.6mph 4°C 3°C
13/03/19 04:50 EGOM 130450Z AUTO 28024G35KT 9999 BKN013/// BKN170/// 04/02 Q0987 RERA W (280°) 27.6mph 40.3mph 4°C 2°C
13/03/19 03:50 EGOM 130350Z AUTO 27024G35KT 9999 BKN020/// BKN027/// 05/02 Q0986 W (270°) 27.6mph 40.3mph 5°C 2°C